createdAt,value
2019-05-17T00:01:33.731Z,13.68
2019-05-17T00:04:13.454Z,14.05
2019-05-17T00:06:51.260Z,12.93
2019-05-17T00:09:26.735Z,14.07
2019-05-17T00:12:04.432Z,11.15
2019-05-17T00:14:42.008Z,9.58
2019-05-17T00:17:17.407Z,12.63
2019-05-17T00:19:57.316Z,13.98
2019-05-17T00:22:37.240Z,9.03
2019-05-17T00:25:12.779Z,15.95
2019-05-17T00:27:50.471Z,10.82
2019-05-17T00:30:26.604Z,18.62
2019-05-17T00:33:04.393Z,12.35
2019-05-17T00:35:46.870Z,10.20
2019-05-17T00:38:27.219Z,10.10
2019-05-17T00:41:03.643Z,10.45
2019-05-17T00:43:41.405Z,10.75
2019-05-17T00:46:17.223Z,8.93
2019-05-17T00:48:57.284Z,15.35
2019-05-17T00:51:36.718Z,14.38
2019-05-17T00:54:13.919Z,8.95
2019-05-17T00:56:56.533Z,11.22
2019-05-17T00:59:36.875Z,8.65
2019-05-17T01:02:13.733Z,16.87
2019-05-17T01:04:51.444Z,9.58
2019-05-17T01:07:34.302Z,6.67
2019-05-17T01:10:13.551Z,7.92
2019-05-17T01:12:51.168Z,9.73
2019-05-17T01:15:29.055Z,9.45
2019-05-17T01:18:07.314Z,8.40
2019-05-17T01:20:47.584Z,6.95
2019-05-17T01:23:27.665Z,7.25
2019-05-17T01:26:07.597Z,7.33
2019-05-17T01:28:46.747Z,6.25
2019-05-17T01:31:26.558Z,9.30
2019-05-17T01:34:07.397Z,12.45
2019-05-17T01:36:46.480Z,12.35
2019-05-17T01:39:26.883Z,8.83
2019-05-17T01:42:06.635Z,11.63
2019-05-17T01:44:43.443Z,9.48
2019-05-17T01:47:21.172Z,9.35
2019-05-17T01:49:57.750Z,7.35
2019-05-17T01:52:36.992Z,10.10
2019-05-17T01:55:11.889Z,8.60
2019-05-17T01:57:50.787Z,16.00
2019-05-17T02:00:28.720Z,10.50
2019-05-17T02:03:07.044Z,9.65
2019-05-17T02:05:47.207Z,10.82
2019-05-17T02:08:26.472Z,6.05
2019-05-17T02:11:06.869Z,6.72
2019-05-17T02:13:46.727Z,9.40
2019-05-17T02:16:26.803Z,7.60
2019-05-17T02:19:01.926Z,10.18
2019-05-17T02:21:42.581Z,8.35
2019-05-17T02:24:20.231Z,11.48
2019-05-17T02:26:59.423Z,13.03
2019-05-17T02:29:34.562Z,9.15
2019-05-17T02:32:14.303Z,13.28
2019-05-17T02:34:53.029Z,6.58
2019-05-17T02:37:28.393Z,9.68
2019-05-17T02:40:08.788Z,14.47
2019-05-17T02:42:53.317Z,8.85
2019-05-17T02:45:32.696Z,10.32
2019-05-17T02:48:13.222Z,7.17
2019-05-17T02:50:53.013Z,12.82
2019-05-17T02:53:33.361Z,9.58
2019-05-17T02:56:12.994Z,15.88
2019-05-17T02:58:53.033Z,12.05
2019-05-17T03:01:28.359Z,7.37
2019-05-17T03:04:12.830Z,9.40
2019-05-17T03:06:53.253Z,10.95
2019-05-17T03:09:33.291Z,8.08
2019-05-17T03:12:12.892Z,7.50
2019-05-17T03:14:52.873Z,10.95
2019-05-17T03:17:33.824Z,6.35
2019-05-17T03:20:12.901Z,8.73
2019-05-17T03:22:54.379Z,11.22
2019-05-17T03:25:43.907Z,8.33
2019-05-17T03:28:23.589Z,8.85
2019-05-17T03:31:07.968Z,10.78
2019-05-17T03:33:45.990Z,9.98
2019-05-17T03:36:18.544Z,10.63
2019-05-17T03:38:56.205Z,8.00
2019-05-17T03:41:37.835Z,7.72
2019-05-17T03:44:16.888Z,6.72
2019-05-17T03:46:53.183Z,4.97
2019-05-17T03:49:32.941Z,8.30
2019-05-17T03:52:13.585Z,13.08
2019-05-17T03:54:53.262Z,9.25
2019-05-17T03:57:32.572Z,8.20
2019-05-17T04:00:13.363Z,9.55
2019-05-17T04:02:53.382Z,20.10
2019-05-17T04:05:36.135Z,13.25
2019-05-17T04:08:15.349Z,9.38
2019-05-17T04:10:55.158Z,10.58
2019-05-17T04:13:33.836Z,10.80
2019-05-17T04:16:13.911Z,7.53
2019-05-17T04:18:53.465Z,12.75
2019-05-17T04:21:34.158Z,8.93
2019-05-17T04:24:12.728Z,10.80
2019-05-17T04:26:52.617Z,12.93
2019-05-17T04:29:32.884Z,11.20
2019-05-17T04:32:09.009Z,10.55
2019-05-17T04:34:46.959Z,12.93
2019-05-17T04:37:26.123Z,15.20
2019-05-17T04:40:04.026Z,12.98
2019-05-17T04:42:44.666Z,12.88
2019-05-17T04:45:28.322Z,10.40
2019-05-17T04:48:09.231Z,10.95
2019-05-17T04:50:48.248Z,13.08
2019-05-17T04:53:28.486Z,15.10
2019-05-17T04:56:08.113Z,9.15
2019-05-17T04:58:45.732Z,16.62
2019-05-17T05:01:24.899Z,21.07
2019-05-17T05:04:03.429Z,9.03
2019-05-17T05:06:43.652Z,16.17
2019-05-17T05:09:22.908Z,11.70
2019-05-17T05:12:04.672Z,11.00
2019-05-17T05:14:37.594Z,14.33
2019-05-17T05:17:15.503Z,11.20
2019-05-17T05:19:54.495Z,8.85
2019-05-17T05:22:32.958Z,13.35
2019-05-17T05:25:12.362Z,8.98
2019-05-17T05:27:51.677Z,11.33
2019-05-17T05:30:31.842Z,10.03
2019-05-17T05:33:08.471Z,14.50
2019-05-17T05:35:46.121Z,16.23
2019-05-17T05:38:24.127Z,10.55
2019-05-17T05:41:02.095Z,13.48
2019-05-17T05:43:41.983Z,10.53
2019-05-17T05:46:22.248Z,13.28
2019-05-17T05:49:12.195Z,10.45
2019-05-17T05:51:48.794Z,9.70
2019-05-17T05:54:26.530Z,8.13
2019-05-17T05:57:04.209Z,10.08
2019-05-17T05:59:43.807Z,7.42
2019-05-17T06:02:21.892Z,11.30
2019-05-17T06:05:01.739Z,10.32
2019-05-17T06:07:38.425Z,11.30
2019-05-17T06:10:16.881Z,9.48
2019-05-17T06:12:56.160Z,8.10
2019-05-17T06:15:33.950Z,8.70
2019-05-17T06:18:12.986Z,8.70
2019-05-17T06:20:52.307Z,43.63
2019-05-17T06:23:31.671Z,11.57
2019-05-17T06:26:12.483Z,7.10
2019-05-17T06:28:56.504Z,7.42
2019-05-17T06:31:33.338Z,6.78
2019-05-17T06:34:11.636Z,6.03
2019-05-17T06:36:49.357Z,9.30
2019-05-17T06:39:29.038Z,12.98
2019-05-17T06:42:08.261Z,7.10
2019-05-17T06:44:45.175Z,12.13
2019-05-17T06:47:22.403Z,8.05
2019-05-17T06:49:56.703Z,7.97
2019-05-17T06:52:32.674Z,7.60
2019-05-17T06:55:12.817Z,9.43
2019-05-17T06:57:52.821Z,7.78
2019-05-17T07:00:31.682Z,10.08
2019-05-17T07:03:09.758Z,8.28
2019-05-17T07:05:50.168Z,7.15
2019-05-17T07:08:31.818Z,10.32
2019-05-17T07:11:10.481Z,8.93
2019-05-17T07:13:49.617Z,8.70
2019-05-17T07:16:27.342Z,7.80
2019-05-17T07:19:03.124Z,10.75
2019-05-17T07:21:40.882Z,8.20
2019-05-17T07:24:19.605Z,10.20
2019-05-17T07:26:59.116Z,8.90
2019-05-17T07:29:40.182Z,13.98
2019-05-17T07:32:16.736Z,12.00
2019-05-17T07:34:55.724Z,10.32
2019-05-17T07:37:34.593Z,10.32
2019-05-17T07:40:12.594Z,17.02
2019-05-17T07:42:50.271Z,11.53
2019-05-17T07:45:29.552Z,12.25
2019-05-17T07:48:10.368Z,11.50
2019-05-17T07:50:50.190Z,13.48
2019-05-17T07:53:26.721Z,11.28
2019-05-17T07:56:04.527Z,13.50
2019-05-17T07:58:44.069Z,14.38
2019-05-17T08:01:21.955Z,8.90
2019-05-17T08:04:00.670Z,11.38
2019-05-17T08:06:40.322Z,14.15
2019-05-17T08:09:20.322Z,16.30
2019-05-17T08:12:00.713Z,14.28
2019-05-17T08:14:40.018Z,14.35
2019-05-17T08:17:19.798Z,10.63
2019-05-17T08:19:57.084Z,10.88
2019-05-17T08:22:34.562Z,13.83
2019-05-17T08:25:12.986Z,11.80
2019-05-17T08:28:40.202Z,8.20
2019-05-17T08:31:30.280Z,14.13
2019-05-17T08:34:10.794Z,11.43
2019-05-17T08:36:50.618Z,11.48
2019-05-17T08:39:31.963Z,10.98
2019-05-17T08:42:10.976Z,13.70
2019-05-17T08:44:49.836Z,10.53
2019-05-17T08:47:30.282Z,14.18
2019-05-17T08:50:11.822Z,12.40
2019-05-17T08:52:49.628Z,16.07
2019-05-17T08:55:29.881Z,11.00
2019-05-17T08:58:10.002Z,14.95
2019-05-17T09:00:50.484Z,12.37
2019-05-17T09:03:30.440Z,12.40
2019-05-17T09:06:12.473Z,13.00
2019-05-17T09:08:51.611Z,18.67
2019-05-17T09:11:30.294Z,16.82
2019-05-17T09:14:10.316Z,15.45
2019-05-17T09:16:50.326Z,15.45
2019-05-17T09:19:27.215Z,16.57
2019-05-17T09:22:06.667Z,14.03
2019-05-17T09:24:45.684Z,19.00
2019-05-17T09:27:26.654Z,12.20
2019-05-17T09:30:04.367Z,11.75
2019-05-17T09:32:42.468Z,11.53
2019-05-17T09:35:23.687Z,11.83
2019-05-17T09:38:02.693Z,14.43
2019-05-17T09:40:42.706Z,15.45
2019-05-17T09:43:21.788Z,12.58
2019-05-17T09:46:01.597Z,15.88
2019-05-17T09:48:39.688Z,25.15
2019-05-17T09:51:20.849Z,26.23
2019-05-17T09:54:00.595Z,28.55
2019-05-17T09:56:39.621Z,20.62
2019-05-17T09:59:17.517Z,19.20
2019-05-17T10:01:55.262Z,24.82
2019-05-17T10:04:33.081Z,18.87
2019-05-17T10:07:13.927Z,16.60
2019-05-17T10:09:51.968Z,17.77
2019-05-17T10:12:33.863Z,22.85
2019-05-17T10:15:11.931Z,21.73
2019-05-17T10:17:49.673Z,21.33
2019-05-17T10:20:29.220Z,20.43
2019-05-17T10:23:10.511Z,25.95
2019-05-17T10:25:47.710Z,31.97
2019-05-17T10:28:25.513Z,66.35
2019-05-17T10:31:03.205Z,39.23
2019-05-17T10:33:42.959Z,30.25
2019-05-17T10:36:20.039Z,31.85
2019-05-17T10:38:54.320Z,32.08
2019-05-17T10:41:33.410Z,37.75
2019-05-17T10:44:12.674Z,34.75
2019-05-17T10:46:53.276Z,26.68
2019-05-17T10:49:29.785Z,29.20
2019-05-17T10:52:09.471Z,26.70
2019-05-17T10:54:47.348Z,30.08
2019-05-17T10:57:26.428Z,27.40
2019-05-17T11:00:06.240Z,31.15
2019-05-17T11:02:47.913Z,33.23
2019-05-17T11:05:26.486Z,24.27
2019-05-17T11:08:04.175Z,23.20
2019-05-17T11:10:43.636Z,23.98
2019-05-17T11:13:21.896Z,23.15
2019-05-17T11:16:00.245Z,23.77
2019-05-17T11:18:40.953Z,22.07
2019-05-17T11:21:20.228Z,24.18
2019-05-17T11:23:57.371Z,31.27
2019-05-17T11:26:38.099Z,28.30
2019-05-17T11:29:16.000Z,24.20
2019-05-17T11:31:54.759Z,21.17
2019-05-17T11:34:31.426Z,20.95
2019-05-17T11:37:10.413Z,24.18
2019-05-17T11:39:51.649Z,22.93
2019-05-17T11:42:28.114Z,24.57
2019-05-17T11:45:07.132Z,23.00
2019-05-17T11:47:42.467Z,25.37
2019-05-17T11:50:20.904Z,24.27
2019-05-17T11:52:58.772Z,26.15
2019-05-17T11:55:38.602Z,23.02
2019-05-17T11:58:16.346Z,26.60
2019-05-17T12:00:54.236Z,23.47
2019-05-17T12:03:29.649Z,24.18
2019-05-17T12:06:05.516Z,28.77
2019-05-17T12:08:43.246Z,33.50
2019-05-17T12:11:22.198Z,28.52
2019-05-17T12:14:01.817Z,39.78
2019-05-17T12:16:39.738Z,30.32
2019-05-17T12:19:19.450Z,26.65
2019-05-17T12:21:57.145Z,30.60
2019-05-17T12:24:36.388Z,32.38
2019-05-17T12:27:13.628Z,33.45
2019-05-17T12:29:54.227Z,26.77
2019-05-17T12:32:32.652Z,29.50
2019-05-17T12:35:10.688Z,22.00
2019-05-17T12:37:49.329Z,27.00
2019-05-17T12:40:39.708Z,25.00
2019-05-17T12:43:17.727Z,22.95
2019-05-17T12:46:01.104Z,16.17
2019-05-17T12:48:39.806Z,18.07
2019-05-17T12:51:20.828Z,19.57
2019-05-17T12:53:58.717Z,14.95
2019-05-17T12:56:37.640Z,16.90
2019-05-17T12:59:15.504Z,21.07
2019-05-17T13:01:53.177Z,15.53
2019-05-17T13:04:34.813Z,16.27
2019-05-17T13:07:13.808Z,16.00
2019-05-17T13:09:51.349Z,16.62
2019-05-17T13:12:29.041Z,16.57
2019-05-17T13:15:06.957Z,18.87
2019-05-17T13:17:45.871Z,17.00
2019-05-17T13:20:24.508Z,21.00
2019-05-17T13:23:02.242Z,18.92
2019-05-17T13:25:40.995Z,19.77
2019-05-17T13:28:21.746Z,19.60
2019-05-17T13:30:59.712Z,23.35
2019-05-17T13:33:39.787Z,16.97
2019-05-17T13:36:17.499Z,17.02
2019-05-17T13:38:54.493Z,18.73
2019-05-17T13:41:32.144Z,15.35
2019-05-17T13:44:11.552Z,16.87
2019-05-17T13:46:51.954Z,20.43
2019-05-17T13:49:29.713Z,17.85
2019-05-17T13:52:10.469Z,16.23
2019-05-17T13:54:48.272Z,18.00
2019-05-17T13:57:25.942Z,17.67
2019-05-17T14:00:05.164Z,19.57
2019-05-17T14:02:42.823Z,19.12
2019-05-17T14:05:22.391Z,15.95
2019-05-17T14:08:02.519Z,16.20
2019-05-17T14:10:37.686Z,19.67
2019-05-17T14:13:15.529Z,22.13
2019-05-17T14:15:53.356Z,17.27
2019-05-17T14:18:31.183Z,17.87
2019-05-17T14:21:09.888Z,16.80
2019-05-17T14:23:44.917Z,19.35
2019-05-17T14:26:24.692Z,17.65
2019-05-17T14:29:03.699Z,16.97
2019-05-17T14:31:43.301Z,14.65
2019-05-17T14:34:18.712Z,15.32
2019-05-17T14:36:56.418Z,18.12
2019-05-17T14:39:31.568Z,17.50
2019-05-17T14:42:11.050Z,18.62
2019-05-17T14:44:49.144Z,15.65
2019-05-17T14:47:27.966Z,21.85
2019-05-17T14:50:05.732Z,17.57
2019-05-17T14:52:43.334Z,20.12
2019-05-17T14:55:21.027Z,20.88
2019-05-17T14:58:00.619Z,16.67
2019-05-17T15:00:40.098Z,19.45
2019-05-17T15:03:19.562Z,17.15
2019-05-17T15:05:57.173Z,15.63
2019-05-17T15:08:34.807Z,16.73
2019-05-17T15:11:15.027Z,17.40
2019-05-17T15:13:50.267Z,16.15
2019-05-17T15:16:30.179Z,19.00
2019-05-17T15:19:07.910Z,15.70
2019-05-17T15:21:45.547Z,16.80
2019-05-17T15:24:23.382Z,19.80
2019-05-17T15:27:05.427Z,19.10
2019-05-17T15:29:37.191Z,19.23
2019-05-17T15:32:17.662Z,18.17
2019-05-17T15:34:55.407Z,18.17
2019-05-17T15:37:33.284Z,19.07
2019-05-17T15:40:13.308Z,17.02
2019-05-17T15:42:53.003Z,16.07
2019-05-17T15:45:28.238Z,18.80
2019-05-17T15:48:03.340Z,19.98
2019-05-17T15:50:42.631Z,16.67
2019-05-17T15:53:20.784Z,20.43
2019-05-17T15:55:58.602Z,18.20
2019-05-17T15:58:38.324Z,16.45
2019-05-17T16:01:19.169Z,18.92
2019-05-17T16:03:58.687Z,17.70
2019-05-17T16:06:36.321Z,20.43
2019-05-17T16:09:19.382Z,21.60
2019-05-17T16:11:55.937Z,18.73
2019-05-17T16:14:35.485Z,18.90
2019-05-17T16:17:13.240Z,19.98
2019-05-17T16:19:48.629Z,19.82
2019-05-17T16:22:26.641Z,17.65
2019-05-17T16:25:06.866Z,20.70
2019-05-17T16:27:42.037Z,22.62
2019-05-17T16:30:24.304Z,18.62
2019-05-17T16:32:59.479Z,18.95
2019-05-17T16:35:34.802Z,21.05
2019-05-17T16:38:12.785Z,19.67
2019-05-17T16:40:50.368Z,18.37
2019-05-17T16:43:27.967Z,17.92
2019-05-17T16:46:07.974Z,18.98
2019-05-17T16:48:45.799Z,19.98
2019-05-17T16:51:23.568Z,18.30
2019-05-17T16:53:58.717Z,21.90
2019-05-17T16:56:35.576Z,19.25
2019-05-17T16:59:13.423Z,18.25
2019-05-17T17:01:53.565Z,22.17
2019-05-17T17:04:32.880Z,19.95
2019-05-17T17:07:10.655Z,18.65
2019-05-17T17:09:48.259Z,20.37
2019-05-17T17:12:28.276Z,17.90
2019-05-17T17:15:06.147Z,18.90
2019-05-17T17:17:43.975Z,18.45
2019-05-17T17:20:28.710Z,15.80
2019-05-17T17:23:08.021Z,19.67
2019-05-17T17:25:46.955Z,18.92
2019-05-17T17:28:27.151Z,17.50
2019-05-17T17:31:09.957Z,15.60
2019-05-17T17:33:47.812Z,22.65
2019-05-17T17:36:27.853Z,20.48
2019-05-17T17:39:08.380Z,19.95
2019-05-17T17:41:45.938Z,19.75
2019-05-17T17:44:23.738Z,15.70
2019-05-17T17:47:03.727Z,17.40
2019-05-17T17:49:42.790Z,17.80
2019-05-17T17:52:20.439Z,21.57
2019-05-17T17:55:02.829Z,15.25
2019-05-17T17:57:41.500Z,18.23
2019-05-17T18:06:31.898Z,20.95
2019-05-17T18:09:08.050Z,19.70
2019-05-17T18:11:48.821Z,18.30
2019-05-17T18:14:26.486Z,16.75
2019-05-17T18:17:07.287Z,19.45
2019-05-17T18:19:47.137Z,15.28
2019-05-17T18:22:24.821Z,20.62
2019-05-17T18:25:02.441Z,19.65
2019-05-17T18:27:42.604Z,21.25
2019-05-17T18:30:22.210Z,17.67
2019-05-17T18:33:00.020Z,17.50
2019-05-17T18:35:39.339Z,17.67
2019-05-17T18:38:17.793Z,15.63
2019-05-17T18:40:55.464Z,15.58
2019-05-17T18:43:33.407Z,14.73
2019-05-17T18:46:12.558Z,16.97
2019-05-17T18:48:53.389Z,16.70
2019-05-17T18:51:31.070Z,17.50
2019-05-17T18:54:11.351Z,17.23
2019-05-17T18:56:50.304Z,15.80
2019-05-17T18:59:27.880Z,18.42
2019-05-17T19:02:07.027Z,15.70
2019-05-17T19:04:46.550Z,15.98
2019-05-17T19:07:24.303Z,18.20
2019-05-17T19:10:05.427Z,17.25
2019-05-17T19:12:43.072Z,14.70
2019-05-17T19:15:21.025Z,14.93
2019-05-17T19:18:03.084Z,17.80
2019-05-17T19:20:40.853Z,16.00
2019-05-17T19:23:20.820Z,16.12
2019-05-17T19:25:59.848Z,21.97
2019-05-17T19:28:40.962Z,14.35
2019-05-17T19:31:20.681Z,17.87
2019-05-17T19:33:59.699Z,19.77
2019-05-17T19:36:37.302Z,17.98
2019-05-17T19:39:16.934Z,19.30
2019-05-17T19:41:54.504Z,20.00
2019-05-17T19:44:32.122Z,23.42
2019-05-17T19:47:12.184Z,18.15
2019-05-17T19:49:54.911Z,17.23
2019-05-17T19:52:33.954Z,18.45
2019-05-17T19:55:13.885Z,18.98
2019-05-17T19:57:51.569Z,17.00
2019-05-17T20:00:31.509Z,18.27
2019-05-17T20:03:11.063Z,15.85
2019-05-17T20:05:48.708Z,15.85
2019-05-17T20:08:26.354Z,16.05
2019-05-17T20:11:04.013Z,17.50
2019-05-17T20:13:40.755Z,17.60
2019-05-17T20:16:18.259Z,16.90
2019-05-17T20:18:55.968Z,17.82
2019-05-17T20:21:35.181Z,19.00
2019-05-17T20:24:10.369Z,16.32
2019-05-17T20:26:47.878Z,20.27
2019-05-17T20:29:25.545Z,19.70
2019-05-17T20:32:03.038Z,17.42
2019-05-17T20:34:40.768Z,17.65
2019-05-17T20:37:15.994Z,17.42
2019-05-17T20:39:53.583Z,19.10
2019-05-17T20:42:36.660Z,16.97
2019-05-17T20:45:32.164Z,17.17
2019-05-17T20:47:57.996Z,20.35
2019-05-17T20:50:35.636Z,18.37
2019-05-17T20:53:19.082Z,19.98
2019-05-17T20:55:51.278Z,17.62
2019-05-17T20:58:26.227Z,15.70
2019-05-17T21:01:06.319Z,19.05
2019-05-17T21:03:45.194Z,21.10
2019-05-17T21:06:24.693Z,16.65
2019-05-17T21:09:01.701Z,18.02
2019-05-17T21:11:41.465Z,21.02
2019-05-17T21:14:19.121Z,16.82
2019-05-17T21:16:56.756Z,19.67
2019-05-17T21:19:34.331Z,20.45
2019-05-17T21:22:12.089Z,21.10
2019-05-17T21:24:50.174Z,23.22
2019-05-17T21:27:27.626Z,21.10
2019-05-17T21:30:06.465Z,21.70
2019-05-17T21:32:43.866Z,18.23
2019-05-17T21:35:23.427Z,17.25
2019-05-17T21:38:02.776Z,18.57
2019-05-17T21:40:37.841Z,16.17
2019-05-17T21:43:19.848Z,19.70
2019-05-17T21:46:03.620Z,19.92
2019-05-17T21:48:39.806Z,17.65
2019-05-17T21:51:14.996Z,17.80
2019-05-17T21:53:52.551Z,20.60
2019-05-17T21:56:31.729Z,19.67
2019-05-17T21:59:12.228Z,20.37
2019-05-17T22:01:48.756Z,18.20
2019-05-17T22:04:28.287Z,18.23
2019-05-17T22:07:03.513Z,20.55
2019-05-17T22:09:39.411Z,20.68
2019-05-17T22:12:18.992Z,22.52
2019-05-17T22:14:58.300Z,20.68
2019-05-17T22:17:33.378Z,26.07
2019-05-17T22:20:13.060Z,24.02
2019-05-17T22:22:49.716Z,20.72
2019-05-17T22:25:29.508Z,20.25
2019-05-17T22:28:07.293Z,23.65
2019-05-17T22:30:44.993Z,27.15
2019-05-17T22:33:24.203Z,22.22
2019-05-17T22:36:03.425Z,24.20
2019-05-17T22:38:41.174Z,25.48
2019-05-17T22:41:18.756Z,25.65
2019-05-17T22:43:56.342Z,25.85
2019-05-17T22:46:36.412Z,25.43
2019-05-17T22:49:12.903Z,27.98
2019-05-17T22:51:50.470Z,26.23
2019-05-17T22:54:28.131Z,24.20
2019-05-17T22:57:05.795Z,27.32
